createdAt,value
2019-02-27T00:01:08.224Z,47.78
2019-02-27T00:02:10.428Z,47.83
2019-02-27T00:03:12.627Z,47.85
2019-02-27T00:04:14.835Z,47.84
2019-02-27T00:05:17.031Z,47.81
2019-02-27T00:06:20.547Z,47.82
2019-02-27T00:07:22.768Z,47.77
2019-02-27T00:08:26.939Z,47.76
2019-02-27T00:09:32.706Z,47.74
2019-02-27T00:10:32.696Z,47.76
2019-02-27T00:11:35.044Z,47.71
2019-02-27T00:12:37.258Z,47.69
2019-02-27T00:13:39.486Z,47.70
2019-02-27T00:14:41.712Z,47.74
2019-02-27T00:15:43.917Z,47.71
2019-02-27T00:16:46.536Z,47.74
2019-02-27T00:17:51.499Z,47.75
2019-02-27T00:18:53.698Z,47.77
2019-02-27T00:19:56.492Z,47.77
2019-02-27T00:20:58.996Z,47.74
2019-02-27T00:22:04.270Z,47.75
2019-02-27T00:23:07.388Z,47.74
2019-02-27T00:24:09.610Z,47.72
2019-02-27T00:25:11.814Z,47.74
2019-02-27T00:26:14.026Z,47.72
2019-02-27T00:27:16.233Z,47.73
2019-02-27T00:28:18.448Z,47.74
2019-02-27T00:29:20.682Z,47.71
2019-02-27T00:30:22.882Z,47.71
2019-02-27T00:31:25.105Z,47.71
2019-02-27T00:32:27.332Z,47.74
2019-02-27T00:33:29.547Z,47.71
2019-02-27T00:34:33.010Z,47.71
2019-02-27T00:35:38.686Z,47.74
2019-02-27T00:36:39.611Z,47.73
2019-02-27T00:37:41.828Z,47.71
2019-02-27T00:38:44.005Z,47.70
2019-02-27T00:39:46.392Z,47.68
2019-02-27T00:40:48.597Z,47.70
2019-02-27T00:41:50.799Z,47.68
2019-02-27T00:42:54.297Z,47.69
2019-02-27T00:44:01.124Z,47.68
2019-02-27T00:45:00.723Z,47.71
2019-02-27T00:46:02.933Z,47.69
2019-02-27T00:47:05.151Z,47.69
2019-02-27T00:48:07.360Z,47.71
2019-02-27T00:49:09.671Z,47.70
2019-02-27T00:50:11.904Z,47.69
2019-02-27T00:51:14.100Z,47.67
2019-02-27T00:52:18.231Z,47.70
2019-02-27T00:53:21.927Z,47.66
2019-02-27T00:54:24.046Z,47.66
2019-02-27T00:55:26.253Z,47.67
2019-02-27T00:56:28.664Z,47.69
2019-02-27T00:57:30.877Z,47.66
2019-02-27T00:58:33.265Z,47.66
2019-02-27T00:59:36.591Z,47.67
2019-02-27T01:00:39.344Z,47.65
2019-02-27T01:01:42.203Z,47.65
2019-02-27T01:02:44.400Z,47.65
2019-02-27T01:03:46.719Z,47.64
2019-02-27T01:04:48.943Z,47.65
2019-02-27T01:05:51.145Z,47.63
2019-02-27T01:06:53.545Z,47.63
2019-02-27T01:07:55.765Z,47.63
2019-02-27T01:08:57.985Z,47.60
2019-02-27T01:10:00.336Z,47.60
2019-02-27T01:11:02.515Z,47.62
2019-02-27T01:12:07.453Z,47.60
2019-02-27T01:13:09.853Z,47.62
2019-02-27T01:14:12.057Z,47.62
2019-02-27T01:15:14.268Z,47.59
2019-02-27T01:16:17.213Z,47.58
2019-02-27T01:17:23.441Z,47.60
2019-02-27T01:18:23.935Z,47.59
2019-02-27T01:19:26.143Z,47.57
2019-02-27T01:20:28.372Z,47.58
2019-02-27T01:21:30.593Z,47.57
2019-02-27T01:22:32.790Z,47.58
2019-02-27T01:23:35.002Z,47.58
2019-02-27T01:24:37.213Z,47.59
2019-02-27T01:25:39.422Z,47.58
2019-02-27T01:26:41.787Z,47.55
2019-02-27T01:27:44.723Z,47.56
2019-02-27T01:28:47.118Z,47.55
2019-02-27T01:29:51.613Z,47.55
2019-02-27T01:30:53.190Z,47.56
2019-02-27T01:31:57.675Z,47.53
2019-02-27T01:33:03.984Z,47.55
2019-02-27T01:34:03.693Z,47.55
2019-02-27T01:35:05.929Z,47.55
2019-02-27T01:36:08.132Z,47.53
2019-02-27T01:37:10.326Z,47.56
2019-02-27T01:38:13.309Z,47.53
2019-02-27T01:39:15.509Z,47.54
2019-02-27T01:40:18.598Z,47.54
2019-02-27T01:41:24.433Z,47.54
2019-02-27T01:42:24.887Z,47.55
2019-02-27T01:43:27.096Z,47.53
2019-02-27T01:44:29.298Z,47.55
2019-02-27T01:45:31.531Z,47.55
2019-02-27T01:46:34.641Z,47.55
2019-02-27T01:47:36.844Z,47.50
2019-02-27T01:48:42.737Z,47.48
2019-02-27T01:49:43.483Z,47.53
2019-02-27T01:50:45.696Z,47.52
2019-02-27T01:51:47.893Z,47.51
2019-02-27T01:52:50.094Z,47.48
2019-02-27T01:53:52.594Z,47.48
2019-02-27T01:54:54.966Z,47.47
2019-02-27T01:55:57.176Z,47.46
2019-02-27T01:56:59.918Z,47.48
2019-02-27T01:58:03.745Z,47.47
2019-02-27T01:59:05.951Z,47.45
2019-02-27T02:00:08.139Z,47.46
2019-02-27T02:01:11.471Z,47.44
2019-02-27T02:02:13.664Z,47.46
2019-02-27T02:03:15.876Z,47.47
2019-02-27T02:04:20.286Z,47.46
2019-02-27T02:05:26.364Z,47.47
2019-02-27T02:06:25.876Z,47.46
2019-02-27T02:07:28.092Z,47.46
2019-02-27T02:08:30.284Z,47.44
2019-02-27T02:09:32.584Z,47.43
2019-02-27T02:10:34.813Z,47.44
2019-02-27T02:11:37.032Z,47.43
2019-02-27T02:12:41.648Z,47.45
2019-02-27T02:13:43.273Z,47.43
2019-02-27T02:14:45.480Z,47.43
2019-02-27T02:15:47.704Z,47.44
2019-02-27T02:16:50.047Z,47.42
2019-02-27T02:17:52.244Z,47.42
2019-02-27T02:18:54.437Z,47.44
2019-02-27T02:19:56.644Z,47.44
2019-02-27T02:21:01.651Z,47.44
2019-02-27T02:22:02.727Z,47.41
2019-02-27T02:23:04.924Z,47.43
2019-02-27T02:24:07.146Z,47.42
2019-02-27T02:25:09.346Z,47.42
2019-02-27T02:26:11.561Z,47.42
2019-02-27T02:27:13.782Z,47.41
2019-02-27T02:28:15.981Z,47.40
2019-02-27T02:29:20.389Z,47.43
2019-02-27T02:30:29.178Z,47.43
2019-02-27T02:31:25.990Z,47.40
2019-02-27T02:32:28.201Z,47.41
2019-02-27T02:33:30.531Z,47.43
2019-02-27T02:34:32.849Z,47.41
2019-02-27T02:35:35.004Z,47.41
2019-02-27T02:36:37.226Z,47.39
2019-02-27T02:37:39.436Z,47.40
2019-02-27T02:38:41.661Z,47.36
2019-02-27T02:39:43.855Z,47.40
2019-02-27T02:40:46.053Z,47.39
2019-02-27T02:41:48.407Z,47.36
2019-02-27T02:42:52.218Z,47.39
2019-02-27T02:43:54.422Z,47.40
2019-02-27T02:44:57.683Z,47.39
2019-02-27T02:46:00.631Z,47.39
2019-02-27T02:47:02.870Z,47.37
2019-02-27T02:48:05.077Z,47.35
2019-02-27T02:49:08.560Z,47.38
2019-02-27T02:50:10.874Z,47.35
2019-02-27T02:51:13.072Z,47.35
2019-02-27T02:52:15.296Z,47.34
2019-02-27T02:53:17.535Z,47.36
2019-02-27T02:54:19.744Z,47.35
2019-02-27T02:55:21.956Z,47.36
2019-02-27T02:56:24.965Z,47.33
2019-02-27T02:57:27.193Z,47.35
2019-02-27T02:58:29.395Z,47.34
2019-02-27T02:59:31.603Z,47.31
2019-02-27T03:00:37.844Z,47.30
2019-02-27T03:01:37.638Z,47.33
2019-02-27T03:02:40.971Z,47.29
2019-02-27T03:03:43.164Z,47.32
2019-02-27T03:04:48.378Z,47.30
2019-02-27T03:05:49.396Z,47.30
2019-02-27T03:06:51.592Z,47.32
2019-02-27T03:07:53.936Z,47.31
2019-02-27T03:08:56.345Z,47.36
2019-02-27T03:09:58.738Z,47.33
2019-02-27T03:11:00.938Z,47.34
2019-02-27T03:12:03.134Z,47.34
2019-02-27T03:13:07.164Z,47.34
2019-02-27T03:14:09.219Z,47.34
2019-02-27T03:15:11.427Z,47.32
2019-02-27T03:16:13.625Z,47.33
2019-02-27T03:17:18.435Z,47.35
2019-02-27T03:18:19.705Z,47.32
2019-02-27T03:19:21.916Z,47.30
2019-02-27T03:20:24.103Z,47.30
2019-02-27T03:21:28.539Z,47.31
2019-02-27T03:22:30.169Z,47.29
2019-02-27T03:23:32.397Z,47.31
2019-02-27T03:24:34.592Z,47.29
2019-02-27T03:25:40.710Z,47.30
2019-02-27T03:26:40.643Z,47.31
2019-02-27T03:27:42.843Z,47.29
2019-02-27T03:28:45.075Z,47.30
2019-02-27T03:29:52.215Z,47.29
2019-02-27T03:30:51.119Z,47.29
2019-02-27T03:32:00.096Z,47.30
2019-02-27T03:32:57.168Z,47.29
2019-02-27T03:34:05.676Z,47.26
2019-02-27T03:35:03.236Z,47.28
2019-02-27T03:36:05.438Z,47.24
2019-02-27T03:37:13.195Z,47.25
2019-02-27T03:38:11.491Z,47.27
2019-02-27T03:39:13.706Z,47.25
2019-02-27T03:40:18.895Z,47.23
2019-02-27T03:41:22.825Z,47.22
2019-02-27T03:42:24.942Z,47.21
2019-02-27T03:43:27.148Z,47.25
2019-02-27T03:44:29.399Z,47.21
2019-02-27T03:45:31.828Z,47.23
2019-02-27T03:46:34.077Z,47.22
2019-02-27T03:47:36.275Z,47.22
2019-02-27T03:48:38.514Z,47.19
2019-02-27T03:49:40.953Z,47.19
2019-02-27T03:50:49.120Z,47.21
2019-02-27T03:51:50.305Z,47.17
2019-02-27T03:52:52.644Z,47.17
2019-02-27T03:53:54.848Z,47.16
2019-02-27T03:54:58.246Z,47.18
2019-02-27T03:56:00.696Z,47.17
2019-02-27T03:57:02.911Z,47.19
2019-02-27T03:58:05.105Z,47.17
2019-02-27T03:59:07.562Z,47.19
2019-02-27T04:00:10.080Z,47.18
2019-02-27T04:01:12.288Z,47.16
2019-02-27T04:02:14.499Z,47.17
2019-02-27T04:03:18.305Z,47.20
2019-02-27T04:04:20.717Z,47.16
2019-02-27T04:05:22.939Z,47.18
2019-02-27T04:06:25.147Z,47.18
2019-02-27T04:07:31.511Z,47.19
2019-02-27T04:08:31.227Z,47.17
2019-02-27T04:09:33.424Z,47.19
2019-02-27T04:10:35.726Z,47.16
2019-02-27T04:11:41.454Z,47.16
2019-02-27T04:12:41.774Z,47.17
2019-02-27T04:13:43.973Z,47.14
2019-02-27T04:14:46.178Z,47.16
2019-02-27T04:15:53.329Z,47.15
2019-02-27T04:16:52.246Z,47.15
2019-02-27T04:17:54.443Z,47.15
2019-02-27T04:19:02.966Z,47.15
2019-02-27T04:20:00.550Z,47.14
2019-02-27T04:21:02.829Z,47.15
2019-02-27T04:22:05.046Z,47.17
2019-02-27T04:23:11.455Z,47.11
2019-02-27T04:24:11.106Z,47.11
2019-02-27T04:25:16.374Z,47.12
2019-02-27T04:26:19.434Z,47.15
2019-02-27T04:27:21.792Z,47.11
2019-02-27T04:28:23.987Z,47.11
2019-02-27T04:29:26.202Z,47.13
2019-02-27T04:30:28.584Z,47.13
2019-02-27T04:31:31.927Z,47.11
2019-02-27T04:32:34.142Z,47.09
2019-02-27T04:33:36.440Z,47.11
2019-02-27T04:34:38.648Z,47.11
2019-02-27T04:35:40.838Z,47.13
2019-02-27T04:36:46.908Z,47.09
2019-02-27T04:37:48.046Z,47.10
2019-02-27T04:38:50.171Z,47.08
2019-02-27T04:39:52.312Z,47.09
2019-02-27T04:40:54.517Z,47.08
2019-02-27T04:41:56.743Z,47.09
2019-02-27T04:42:59.384Z,47.05
2019-02-27T04:44:05.371Z,47.05
2019-02-27T04:45:06.131Z,47.06
2019-02-27T04:46:08.330Z,47.05
2019-02-27T04:47:10.561Z,47.05
2019-02-27T04:48:12.773Z,47.06
2019-02-27T04:49:14.970Z,47.05
2019-02-27T04:50:17.184Z,47.01
2019-02-27T04:51:19.387Z,47.00
2019-02-27T04:52:21.994Z,46.99
2019-02-27T04:53:25.500Z,47.04
2019-02-27T04:54:27.799Z,47.00
2019-02-27T04:55:30.001Z,47.05
2019-02-27T04:56:32.211Z,47.05
2019-02-27T04:57:34.451Z,47.00
2019-02-27T04:58:36.652Z,47.02
2019-02-27T04:59:38.849Z,47.03
2019-02-27T05:00:41.165Z,47.04
2019-02-27T05:01:43.365Z,47.06
2019-02-27T05:02:45.605Z,47.04
2019-02-27T05:03:47.810Z,47.07
2019-02-27T05:04:50.028Z,47.04
2019-02-27T05:05:52.202Z,47.04
2019-02-27T05:06:54.406Z,47.07
2019-02-27T05:07:56.703Z,47.05
2019-02-27T05:09:00.250Z,47.01
2019-02-27T05:10:06.940Z,47.05
2019-02-27T05:11:06.590Z,47.02
2019-02-27T05:12:08.818Z,47.01
2019-02-27T05:13:11.045Z,47.02
2019-02-27T05:14:13.258Z,47.04
2019-02-27T05:15:15.461Z,47.02
2019-02-27T05:16:17.662Z,47.05
2019-02-27T05:17:21.476Z,47.00
2019-02-27T05:18:23.736Z,47.01
2019-02-27T05:19:25.936Z,47.04
2019-02-27T05:20:29.711Z,47.06
2019-02-27T05:21:31.993Z,47.06
2019-02-27T05:22:34.216Z,47.06
2019-02-27T05:23:36.434Z,47.02
2019-02-27T05:24:41.645Z,47.05
2019-02-27T05:25:43.862Z,47.02
2019-02-27T05:26:46.085Z,47.02
2019-02-27T05:27:48.283Z,47.02
2019-02-27T05:28:50.538Z,47.01
2019-02-27T05:29:52.878Z,47.02
2019-02-27T05:30:55.070Z,46.98
2019-02-27T05:31:57.286Z,47.00
2019-02-27T05:33:02.298Z,46.99
2019-02-27T05:34:03.375Z,47.00
2019-02-27T05:35:08.664Z,47.00
2019-02-27T05:36:10.862Z,47.02
2019-02-27T05:37:14.435Z,46.99
2019-02-27T05:38:16.563Z,47.02
2019-02-27T05:39:18.786Z,47.01
2019-02-27T05:40:23.132Z,47.00
2019-02-27T05:41:25.116Z,47.00
2019-02-27T05:42:27.319Z,46.98
2019-02-27T05:43:29.782Z,47.02
2019-02-27T05:44:32.014Z,47.02
2019-02-27T05:45:34.212Z,46.98
2019-02-27T05:46:38.330Z,46.97
2019-02-27T05:47:44.871Z,46.96
2019-02-27T05:48:44.306Z,46.93
2019-02-27T05:49:46.548Z,46.92
2019-02-27T05:50:48.932Z,46.92
2019-02-27T05:51:51.134Z,46.91
2019-02-27T05:52:53.342Z,46.88
2019-02-27T05:53:56.167Z,46.88
2019-02-27T05:54:59.418Z,46.87
2019-02-27T05:56:01.619Z,46.85
2019-02-27T05:57:06.358Z,46.84
2019-02-27T05:58:08.572Z,46.82
2019-02-27T05:59:12.342Z,46.82
2019-02-27T06:00:14.570Z,46.81
2019-02-27T06:01:16.775Z,46.80
2019-02-27T06:02:18.972Z,46.81
2019-02-27T06:03:21.176Z,46.81
2019-02-27T06:04:25.110Z,46.78
2019-02-27T06:05:27.258Z,46.80
2019-02-27T06:06:29.472Z,46.78
2019-02-27T06:07:32.808Z,46.77
2019-02-27T06:08:37.930Z,46.78
2019-02-27T06:09:38.839Z,46.80
2019-02-27T06:10:41.076Z,46.82
2019-02-27T06:11:43.293Z,46.80
2019-02-27T06:12:45.570Z,46.83
2019-02-27T06:13:48.250Z,46.85
2019-02-27T06:14:54.999Z,46.82
2019-02-27T06:15:57.006Z,46.84
2019-02-27T06:16:59.298Z,46.85
2019-02-27T06:18:01.508Z,46.82
2019-02-27T06:19:03.697Z,46.84
2019-02-27T06:20:07.996Z,46.83
2019-02-27T06:21:09.700Z,46.83
2019-02-27T06:22:11.915Z,46.87
2019-02-27T06:23:14.122Z,46.91
2019-02-27T06:24:16.323Z,46.90
2019-02-27T06:25:22.263Z,46.95
2019-02-27T06:26:22.424Z,46.89
2019-02-27T06:27:24.619Z,46.90
2019-02-27T06:28:26.872Z,46.92
2019-02-27T06:29:29.072Z,46.92
2019-02-27T06:30:31.372Z,46.90
2019-02-27T06:31:36.486Z,46.92
2019-02-27T06:32:37.484Z,46.92
2019-02-27T06:33:39.682Z,46.92
2019-02-27T06:34:41.904Z,46.97
2019-02-27T06:35:44.112Z,46.95
2019-02-27T06:36:46.317Z,46.93
2019-02-27T06:37:50.853Z,46.89
2019-02-27T06:38:52.378Z,46.95
2019-02-27T06:39:54.575Z,46.89
2019-02-27T06:40:56.835Z,46.95
2019-02-27T06:41:59.037Z,46.96
2019-02-27T06:43:01.241Z,46.97
2019-02-27T06:44:03.453Z,46.93
2019-02-27T06:45:05.657Z,46.98
2019-02-27T06:46:07.882Z,46.97
2019-02-27T06:47:10.087Z,46.91
2019-02-27T06:48:12.291Z,46.91
2019-02-27T06:49:17.293Z,46.94
2019-02-27T06:50:18.351Z,46.92
2019-02-27T06:51:20.577Z,46.93
2019-02-27T06:52:22.791Z,46.92
2019-02-27T06:53:27.101Z,46.97
2019-02-27T06:54:29.291Z,46.90
2019-02-27T06:55:31.518Z,46.91
2019-02-27T06:56:33.779Z,46.92
2019-02-27T06:57:35.991Z,46.93
2019-02-27T06:58:38.186Z,46.92
2019-02-27T06:59:40.408Z,46.90
2019-02-27T07:00:42.735Z,46.94
2019-02-27T07:01:47.460Z,46.90
2019-02-27T07:02:48.959Z,46.87
2019-02-27T07:03:51.167Z,46.89
2019-02-27T07:04:53.493Z,46.89
2019-02-27T07:05:55.667Z,46.86
2019-02-27T07:06:57.901Z,46.91
2019-02-27T07:08:02.230Z,46.89
2019-02-27T07:09:04.529Z,46.87
2019-02-27T07:10:06.739Z,46.89
2019-02-27T07:11:10.957Z,46.85
2019-02-27T07:12:12.856Z,46.87
2019-02-27T07:13:15.052Z,46.84
2019-02-27T07:14:17.260Z,46.86
2019-02-27T07:15:19.485Z,46.86
2019-02-27T07:16:24.005Z,46.88
2019-02-27T07:17:26.329Z,46.85
2019-02-27T07:18:28.564Z,46.85
2019-02-27T07:19:30.753Z,46.88
2019-02-27T07:20:32.955Z,46.84
2019-02-27T07:21:35.151Z,46.86
2019-02-27T07:22:37.377Z,46.84
2019-02-27T07:23:39.585Z,46.84
2019-02-27T07:24:41.804Z,46.90
2019-02-27T07:25:43.995Z,46.88
2019-02-27T07:26:47.568Z,46.86
2019-02-27T07:27:50.051Z,46.86
2019-02-27T07:28:52.265Z,46.89
2019-02-27T07:29:54.476Z,46.83
2019-02-27T07:30:56.698Z,46.85
2019-02-27T07:31:58.890Z,46.87
2019-02-27T07:33:03.731Z,46.85
2019-02-27T07:34:05.009Z,46.85
2019-02-27T07:35:07.242Z,46.82
2019-02-27T07:36:09.459Z,46.87
2019-02-27T07:37:12.958Z,46.89
2019-02-27T07:38:15.638Z,46.84
2019-02-27T07:39:17.839Z,46.84
2019-02-27T07:40:20.175Z,46.84
2019-02-27T07:41:22.398Z,46.84
2019-02-27T07:42:24.596Z,46.87
2019-02-27T07:43:26.942Z,46.82
2019-02-27T07:44:29.177Z,46.79
2019-02-27T07:45:31.375Z,46.83
2019-02-27T07:46:35.509Z,46.82
2019-02-27T07:47:37.436Z,46.82
2019-02-27T07:48:39.676Z,46.86
2019-02-27T07:49:41.877Z,46.80
2019-02-27T07:50:49.123Z,46.87
2019-02-27T07:51:50.924Z,46.84
2019-02-27T07:52:53.121Z,46.81
2019-02-27T07:53:55.395Z,46.84
2019-02-27T07:54:57.601Z,46.85
2019-02-27T07:55:59.830Z,46.84
2019-02-27T07:57:02.051Z,46.80
2019-02-27T07:58:04.278Z,46.78
2019-02-27T07:59:06.699Z,46.80
2019-02-27T08:00:08.997Z,46.78
2019-02-27T08:01:11.211Z,46.76
2019-02-27T08:02:13.425Z,46.77
2019-02-27T08:03:15.635Z,46.75
2019-02-27T08:04:19.616Z,46.75
2019-02-27T08:05:21.832Z,46.74
2019-02-27T08:06:24.046Z,46.77
2019-02-27T08:07:26.245Z,46.73
2019-02-27T08:08:28.448Z,46.73
2019-02-27T08:09:30.800Z,46.77
2019-02-27T08:10:36.904Z,46.72
2019-02-27T08:11:38.831Z,46.75
2019-02-27T08:12:41.048Z,46.70
2019-02-27T08:13:43.246Z,46.73
2019-02-27T08:14:45.466Z,46.71
2019-02-27T08:15:49.084Z,46.72
2019-02-27T08:16:51.408Z,46.71
2019-02-27T08:17:57.440Z,46.74
2019-02-27T08:19:00.548Z,46.76
2019-02-27T08:20:03.962Z,46.73
2019-02-27T08:21:06.297Z,46.76
2019-02-27T08:22:08.483Z,46.75
2019-02-27T08:23:10.700Z,46.74
2019-02-27T08:24:12.891Z,46.76
2019-02-27T08:25:15.121Z,46.73
2019-02-27T08:26:18.451Z,46.74
2019-02-27T08:27:20.730Z,46.71
2019-02-27T08:28:23.036Z,46.75
2019-02-27T08:29:25.346Z,46.75
2019-02-27T08:30:27.566Z,46.73
2019-02-27T08:31:31.485Z,46.76
2019-02-27T08:32:34.619Z,46.75
2019-02-27T08:33:37.592Z,46.75
2019-02-27T08:34:39.801Z,46.76
2019-02-27T08:35:42.024Z,46.76
2019-02-27T08:36:44.246Z,46.73
2019-02-27T08:37:46.442Z,46.72
2019-02-27T08:38:48.640Z,46.74
2019-02-27T08:39:50.844Z,46.71
2019-02-27T08:40:57.282Z,46.74
2019-02-27T08:41:57.788Z,46.74
2019-02-27T08:42:59.994Z,46.72
2019-02-27T08:44:02.211Z,46.71
2019-02-27T08:45:04.419Z,46.71
2019-02-27T08:46:06.663Z,46.71
2019-02-27T08:47:10.215Z,46.70
2019-02-27T08:48:17.104Z,46.70
2019-02-27T08:49:16.586Z,46.70
2019-02-27T08:50:18.783Z,46.70
2019-02-27T08:51:20.990Z,46.71
2019-02-27T08:52:23.210Z,46.70
2019-02-27T08:53:26.892Z,46.70
2019-02-27T08:54:32.314Z,46.67
2019-02-27T08:55:33.055Z,46.71
2019-02-27T08:56:35.304Z,46.70
2019-02-27T08:57:37.526Z,46.69
2019-02-27T08:58:39.763Z,46.69
2019-02-27T08:59:41.970Z,46.66
2019-02-27T09:00:47.161Z,46.68
2019-02-27T09:01:48.109Z,46.69
2019-02-27T09:02:50.306Z,46.68
2019-02-27T09:03:52.665Z,46.67
2019-02-27T09:04:54.972Z,46.65
2019-02-27T09:05:57.176Z,46.68
2019-02-27T09:07:02.693Z,46.66
2019-02-27T09:08:03.531Z,46.67
2019-02-27T09:09:07.854Z,46.65
2019-02-27T09:10:09.583Z,46.67
2019-02-27T09:11:11.806Z,46.66
2019-02-27T09:12:14.065Z,46.66
2019-02-27T09:13:16.292Z,46.65
2019-02-27T09:14:19.131Z,46.67
2019-02-27T09:15:21.330Z,46.67
2019-02-27T09:16:26.031Z,46.68
2019-02-27T09:17:28.050Z,46.66
2019-02-27T09:18:30.253Z,46.65
2019-02-27T09:19:34.252Z,46.70
2019-02-27T09:20:36.700Z,46.67
2019-02-27T09:21:39.166Z,46.69
2019-02-27T09:22:41.384Z,46.65
2019-02-27T09:23:43.598Z,46.73
2019-02-27T09:24:47.555Z,46.67
2019-02-27T09:25:57.025Z,46.67
2019-02-27T09:26:53.628Z,46.65
2019-02-27T09:27:55.845Z,46.65
2019-02-27T09:28:58.069Z,46.67
2019-02-27T09:30:00.360Z,46.65
2019-02-27T09:31:04.321Z,46.68
2019-02-27T09:32:06.355Z,46.68
2019-02-27T09:33:08.608Z,46.67
2019-02-27T09:34:10.902Z,46.68
2019-02-27T09:35:13.114Z,46.69
2019-02-27T09:36:15.364Z,46.70
2019-02-27T09:37:17.838Z,46.71
2019-02-27T09:38:24.063Z,46.71
2019-02-27T09:39:23.964Z,46.72
2019-02-27T09:40:26.216Z,46.70
2019-02-27T09:41:28.555Z,46.69
2019-02-27T09:42:30.821Z,46.67
2019-02-27T09:43:33.077Z,46.66
2019-02-27T09:44:36.613Z,46.70
2019-02-27T09:45:39.027Z,46.70
2019-02-27T09:46:41.223Z,46.71
2019-02-27T09:47:43.423Z,46.70
2019-02-27T09:48:45.685Z,46.72
2019-02-27T09:49:47.925Z,46.72
2019-02-27T09:50:50.142Z,46.71
2019-02-27T09:51:55.815Z,46.71
2019-02-27T09:52:56.216Z,46.71
2019-02-27T09:53:58.490Z,46.71
2019-02-27T09:55:00.712Z,46.74
2019-02-27T09:56:05.267Z,46.71
2019-02-27T09:57:07.478Z,46.71
2019-02-27T09:58:10.995Z,46.72
2019-02-27T09:59:13.661Z,46.72
2019-02-27T10:00:15.856Z,46.72
2019-02-27T10:01:18.060Z,46.63
2019-02-27T10:02:20.309Z,46.63
2019-02-27T10:03:22.900Z,46.67
2019-02-27T10:04:29.001Z,46.69
2019-02-27T10:05:36.371Z,46.71
2019-02-27T10:06:35.386Z,46.58
2019-02-27T10:07:37.589Z,46.62
2019-02-27T10:08:39.797Z,46.66
2019-02-27T10:09:42.040Z,46.69
2019-02-27T10:10:45.808Z,46.71
2019-02-27T10:11:48.126Z,46.71
2019-02-27T10:12:50.349Z,46.69
2019-02-27T10:13:52.736Z,46.68
2019-02-27T10:14:55.083Z,46.65
2019-02-27T10:16:00.445Z,46.63
2019-02-27T10:17:01.235Z,46.62
2019-02-27T10:18:03.501Z,46.62
2019-02-27T10:19:05.652Z,46.55
2019-02-27T10:20:07.920Z,46.59
2019-02-27T10:21:12.155Z,46.53
2019-02-27T10:22:13.991Z,46.56
2019-02-27T10:23:18.920Z,46.54
2019-02-27T10:24:21.131Z,46.54
2019-02-27T10:25:23.374Z,46.53
2019-02-27T10:26:25.583Z,46.53
2019-02-27T10:27:28.703Z,46.55
2019-02-27T10:28:31.609Z,46.55
2019-02-27T10:29:33.802Z,46.52
2019-02-27T10:30:36.029Z,46.54
2019-02-27T10:31:38.274Z,46.52
2019-02-27T10:32:40.562Z,46.54
2019-02-27T10:33:43.479Z,46.55
2019-02-27T10:34:45.896Z,46.55
2019-02-27T10:35:48.142Z,46.52
2019-02-27T10:36:50.374Z,46.53
2019-02-27T10:37:54.443Z,46.58
2019-02-27T10:38:56.562Z,46.60
2019-02-27T10:39:58.775Z,46.57
2019-02-27T10:41:01.097Z,46.59
2019-02-27T10:42:03.245Z,46.54
2019-02-27T10:43:05.482Z,46.63
2019-02-27T10:44:07.813Z,46.62
2019-02-27T10:45:10.632Z,46.59
2019-02-27T10:46:12.879Z,46.57
2019-02-27T10:47:15.082Z,46.64
2019-02-27T10:48:17.293Z,46.64
2019-02-27T10:49:21.840Z,46.64
2019-02-27T10:50:23.465Z,46.69
2019-02-27T10:51:25.684Z,46.70
2019-02-27T10:52:27.892Z,46.75
2019-02-27T10:53:30.091Z,46.75
2019-02-27T10:54:32.289Z,46.72
2019-02-27T10:55:34.503Z,46.75
2019-02-27T10:56:36.730Z,46.78
2019-02-27T10:57:38.943Z,46.78
2019-02-27T10:58:41.154Z,46.77
2019-02-27T10:59:43.355Z,46.77
2019-02-27T11:00:47.156Z,46.78
2019-02-27T11:01:49.491Z,46.82
2019-02-27T11:02:52.504Z,46.82
2019-02-27T11:03:54.860Z,46.82
2019-02-27T11:04:57.071Z,46.78
2019-02-27T11:05:59.285Z,46.82
2019-02-27T11:07:01.610Z,46.82
2019-02-27T11:08:03.814Z,46.83
2019-02-27T11:09:07.848Z,46.82
2019-02-27T11:10:10.036Z,46.89
2019-02-27T11:11:13.155Z,46.85
2019-02-27T11:12:16.126Z,46.89
2019-02-27T11:13:18.328Z,46.86
2019-02-27T11:14:20.730Z,46.87
2019-02-27T11:15:22.938Z,46.85
2019-02-27T11:16:25.111Z,46.86
2019-02-27T11:17:27.479Z,46.89
2019-02-27T11:18:29.691Z,46.87
2019-02-27T11:19:31.896Z,46.91
2019-02-27T11:20:34.122Z,46.93
2019-02-27T11:21:36.322Z,46.91
2019-02-27T11:22:38.562Z,46.92
2019-02-27T11:23:41.142Z,46.95
2019-02-27T11:24:44.107Z,46.93
2019-02-27T11:25:46.306Z,46.94
2019-02-27T11:26:48.672Z,46.96
2019-02-27T11:27:50.904Z,46.99
2019-02-27T11:28:53.215Z,46.96
2019-02-27T11:29:59.652Z,46.99
2019-02-27T11:30:59.269Z,47.00
2019-02-27T11:32:01.470Z,47.00
2019-02-27T11:33:03.693Z,47.00
2019-02-27T11:34:07.831Z,47.03
2019-02-27T11:35:09.860Z,46.98
2019-02-27T11:36:12.068Z,46.99
2019-02-27T11:37:16.242Z,47.04
2019-02-27T11:38:18.187Z,47.02
2019-02-27T11:39:20.453Z,47.04
2019-02-27T11:40:22.872Z,47.04
2019-02-27T11:41:25.075Z,47.05
2019-02-27T11:42:28.943Z,47.03
2019-02-27T11:43:31.184Z,47.03
2019-02-27T11:44:37.916Z,47.06
2019-02-27T11:45:40.100Z,47.07
2019-02-27T11:46:42.309Z,47.08
2019-02-27T11:47:47.769Z,47.07
2019-02-27T11:48:48.371Z,47.08
2019-02-27T11:49:50.554Z,47.09
2019-02-27T11:50:52.774Z,47.13
2019-02-27T11:51:56.981Z,47.08
2019-02-27T11:53:01.956Z,47.09
2019-02-27T11:54:04.282Z,47.08
2019-02-27T11:55:06.572Z,47.09
2019-02-27T11:56:08.812Z,47.11
2019-02-27T11:57:11.038Z,47.13
2019-02-27T11:58:13.256Z,47.09
2019-02-27T11:59:15.455Z,47.10
2019-02-27T12:00:21.040Z,47.11
2019-02-27T12:01:23.420Z,47.14
2019-02-27T12:02:29.006Z,47.13
2019-02-27T12:03:29.479Z,47.14
2019-02-27T12:04:31.711Z,47.15
2019-02-27T12:05:34.515Z,47.15
2019-02-27T12:06:41.346Z,47.16
2019-02-27T12:07:40.684Z,47.17
2019-02-27T12:08:42.880Z,47.17
2019-02-27T12:09:45.074Z,47.19
2019-02-27T12:10:47.303Z,47.17
2019-02-27T12:11:51.598Z,47.18
2019-02-27T12:12:53.790Z,47.18
2019-02-27T12:13:56.006Z,47.23
2019-02-27T12:14:58.206Z,47.19
2019-02-27T12:16:00.394Z,47.20
2019-02-27T12:17:03.792Z,47.19
2019-02-27T12:18:06.145Z,47.19
2019-02-27T12:19:08.719Z,47.20
2019-02-27T12:20:12.249Z,47.19
2019-02-27T12:21:21.357Z,47.20
2019-02-27T12:22:23.851Z,47.20
2019-02-27T12:23:27.186Z,47.19
2019-02-27T12:24:29.412Z,47.17
2019-02-27T12:25:32.459Z,47.19
2019-02-27T12:26:37.645Z,47.18
2019-02-27T12:27:49.208Z,47.21
2019-02-27T12:28:42.845Z,47.21
2019-02-27T12:29:45.066Z,47.25
2019-02-27T12:30:47.282Z,47.21
2019-02-27T12:31:49.580Z,47.25
2019-02-27T12:32:55.785Z,47.22
2019-02-27T12:33:55.644Z,47.25
2019-02-27T12:34:57.863Z,47.21
2019-02-27T12:36:00.337Z,47.23
2019-02-27T12:37:02.536Z,47.25
2019-02-27T12:38:08.195Z,47.26
2019-02-27T12:39:15.380Z,47.27
2019-02-27T12:40:16.641Z,47.27
2019-02-27T12:41:19.311Z,47.29
2019-02-27T12:42:21.524Z,47.26
2019-02-27T12:43:24.035Z,47.24
2019-02-27T12:44:26.239Z,47.25
2019-02-27T12:45:30.687Z,47.26
2019-02-27T12:46:34.291Z,47.27
2019-02-27T12:47:37.670Z,47.26
2019-02-27T12:48:40.928Z,47.27
2019-02-27T12:49:43.788Z,47.27
2019-02-27T12:50:46.007Z,47.28
2019-02-27T12:51:48.455Z,47.29
2019-02-27T12:52:50.667Z,47.28
2019-02-27T12:53:54.584Z,47.27
2019-02-27T12:54:59.093Z,47.27
2019-02-27T12:56:01.184Z,47.28
2019-02-27T12:57:03.383Z,47.29
2019-02-27T12:58:06.133Z,47.28
2019-02-27T12:59:08.432Z,47.30
2019-02-27T13:00:10.669Z,47.35
2019-02-27T13:01:16.179Z,47.34
2019-02-27T13:02:17.162Z,47.32
2019-02-27T13:03:19.635Z,47.30
2019-02-27T13:04:21.815Z,47.31
2019-02-27T13:05:27.620Z,47.33
2019-02-27T13:06:34.402Z,47.33
2019-02-27T13:07:34.014Z,47.33
2019-02-27T13:08:36.762Z,47.34
2019-02-27T13:09:38.961Z,47.33
2019-02-27T13:10:41.163Z,47.33
2019-02-27T13:11:46.246Z,47.34
2019-02-27T13:12:49.155Z,47.34
2019-02-27T13:13:52.700Z,47.37
2019-02-27T13:14:55.671Z,47.40
2019-02-27T13:15:57.862Z,47.43
2019-02-27T13:17:00.300Z,47.45
2019-02-27T13:18:02.528Z,47.45
2019-02-27T13:19:07.057Z,47.45
2019-02-27T13:20:09.045Z,47.47
2019-02-27T13:21:12.904Z,47.48
2019-02-27T13:22:15.177Z,47.47
2019-02-27T13:23:17.861Z,47.43
2019-02-27T13:24:19.971Z,47.43
2019-02-27T13:25:24.129Z,47.44
2019-02-27T13:26:27.367Z,47.42
2019-02-27T13:27:29.624Z,47.41